Miami, Florida
Traffic Map
Current Weather Conditions
Miami, Florida
Overcast Light Rain
Overcast
78°
Feels Like: 80°
Wind Chill: 78° Ceiling: 13000
Heat Index: 80° Visibility: 10mi
Dew Point: 68° Wind: 0mph
Humidity: 71% Direction: ° ()
Pressure: 30.04in Gusts: 0mph
Raw Report DataKMIA 220153Z 00000KT 10SM -RA FEW020 SCT070 BKN130 OVC250 26/20 A3004 RMK AO2 RAB03E35B52 TSB03E49 SLP173 TS DSIPTD P0000 T02560200
Traffic Incident Summary
Active as of:
Severity:
Category:
InformationThere was an issue retrieving the traffic information for this location. Please try a different location or try again shortly.
Advertisements
Track Severe Weather on mobile